createdAt,value
2019-03-13T00:24:48.273Z,33.40
2019-03-13T00:54:52.096Z,33.43
2019-03-13T01:24:55.721Z,32.20
2019-03-13T01:54:59.319Z,33.27
2019-03-13T02:25:03.177Z,33.70
2019-03-13T02:55:08.899Z,33.47
2019-03-13T03:25:14.967Z,33.00
2019-03-13T03:55:18.693Z,33.70
2019-03-13T04:25:25.354Z,35.00
2019-03-13T04:55:29.034Z,32.77
2019-03-13T05:25:32.631Z,31.97
2019-03-13T05:55:36.218Z,31.70
2019-03-13T06:25:39.898Z,33.67
2019-03-13T06:55:43.518Z,34.20
2019-03-13T07:25:54.595Z,33.58
2019-03-13T07:56:02.376Z,33.53
2019-03-13T08:56:36.968Z,35.63
2019-03-13T09:26:51.394Z,36.55
2019-03-13T09:57:14.972Z,37.70
2019-03-13T10:27:29.076Z,39.87
2019-03-13T10:57:40.444Z,39.27
2019-03-13T11:27:45.690Z,38.37
2019-03-13T11:57:53.364Z,38.57
2019-03-13T12:27:58.687Z,38.47
2019-03-13T12:58:06.704Z,36.43
2019-03-13T13:28:10.524Z,37.43
2019-03-13T13:58:14.129Z,35.80
2019-03-13T14:28:17.811Z,36.27
2019-03-13T14:58:21.433Z,36.33
2019-03-13T15:28:25.033Z,38.30
2019-03-13T15:58:28.723Z,36.70
2019-03-13T16:28:32.310Z,34.47
2019-03-13T16:58:36.891Z,34.00
2019-03-13T17:28:40.540Z,33.97
2019-03-13T17:58:44.191Z,34.30
2019-03-13T18:28:47.855Z,33.33
2019-03-13T18:58:51.502Z,33.83
2019-03-13T19:28:55.098Z,33.57
2019-03-13T19:58:58.817Z,33.73
2019-03-13T20:29:02.499Z,33.60
2019-03-13T20:59:06.794Z,33.27
2019-03-13T21:29:10.390Z,32.37
2019-03-13T21:59:14.060Z,32.87
2019-03-13T22:29:17.725Z,33.07
2019-03-13T22:59:21.343Z,31.90
2019-03-13T23:29:24.957Z,32.90
2019-03-13T23:59:28.559Z,32.88
